Terminal Aerodrome Forecast
Issued by NWS

Home | Current Version | Previous Version | Text Only | Print | Product List | Glossary Off
Versions: 1 2 3 4 5 6 7 8 9 10 11 12 13 14 15 16 17 18 19 20 21 22 23

539
FTUS43 KGRB 211140
TAFCWA
TAF
KCWA 211140Z 2112/2212 09005KT 1SM BR VCSH OVC004
      TEMPO 2112/2116 1/4SM -DZ FG VV002
     FM212200 14005KT 1 1/2SM -DZ BR OVC003
     FM220600 VRB03KT 1/2SM FG OVC003=

USA.gov is the U.S. government's official web portal to all federal, state and local government web resources and services.